• Join FlightAware (Why Join?)
  • Login
  • US Flag 
02:30AM EDT


 

Airport Tracker/Info


-or-


 

Live Flight TrackerFlight Track Log ✈ N229CN ✈ 08-Sep-2013 ✈ KBED - KBTV

Flight Track Log - Related Links

Times and Time Zones

All times are in EDT time to prevent confusion due to time zone crossing. See the N229CN flight status page for this flight to view local times or setup timezone preferences in your user account.

Time Position Orientation Groundspeed Altitude Reporting Facility
EDT Latitude Longitude Course Direction KTS MPH feet Rate Location/Type
01:19PM 42.4667 -71.3000 334° Northwest 162 186 1,400  Level KA90
01:21PM 42.5167 -71.3333 334° Northwest 204 235 3,100 2,520 Climbing KA90
01:22PM 42.5500 -71.2667 56° Northeast 219 252 7,100 3,960 Climbing KA90
01:23PM 42.6000 -71.2000 44° Northeast 248 285 11,100 3,420 Climbing KA90
01:24PM 42.6461 -71.2206 342° North 242 278 13,800 2,400 Climbing Boston Center
01:25PM 42.7172 -71.2503 343° North 257 296 15,500 1,920 Climbing Boston Center
01:26PM 42.7742 -71.3117 322° Northwest 262 302 17,700 2,160 Climbing Boston Center
01:27PM 42.8394 -71.3783 323° Northwest 275 316 19,900 1,140 Climbing Boston Center
01:28PM 42.8983 -71.4539 317° Northwest 284 327 20,000  Climbing Boston Center
01:29PM 42.9594 -71.5181 322° Northwest 296 341 20,000  Level Boston Center
01:30PM 43.0286 -71.5908 322° Northwest 307 353 20,000  Level Boston Center
01:31PM 43.0917 -71.6639 320° Northwest 307 353 20,000  Level Boston Center
01:32PM 43.1569 -71.7372 321° Northwest 307 353 20,000  Level Boston Center
01:33PM 43.2261 -71.8133 321° Northwest 307 353 20,000  Level Boston Center
01:34PM 43.2869 -71.8839 320° Northwest 302 348 20,000  Level Boston Center
01:35PM 43.3497 -71.9547 321° Northwest 302 348 20,000  Level Boston Center
01:36PM 43.4103 -72.0256 320° Northwest 297 342 20,000  Level Boston Center
01:37PM 43.4753 -72.0967 322° Northwest 292 336 20,000  Level Boston Center
01:38PM 43.5358 -72.1708 318° Northwest 292 336 20,000  Level Boston Center
01:39PM 43.5986 -72.2422 321° Northwest 292 336 20,000  Level Boston Center
01:40PM 43.6611 -72.3139 320° Northwest 292 336 20,000  Level Boston Center
01:41PM 43.7236 -72.3883 319° Northwest 292 336 20,000  Level Boston Center
01:42PM 43.7864 -72.4572 322° Northwest 292 336 20,000 -600 Level Boston Center
01:43PM 43.8444 -72.5294 318° Northwest 292 336 18,900 -1,800 Descending Boston Center
01:44PM 43.8986 -72.5928 320° Northwest 280 322 16,400 -2,700 Descending Boston Center
01:45PM 43.9589 -72.6650 319° Northwest 271 312 13,500 -2,640 Descending Boston Center
01:46PM 44.0150 -72.7317 319° Northwest 262 302 11,100 -1,560 Descending Boston Center
01:47PM 44.0756 -72.7639 339° North 240 276 10,400 -1,200 Descending Boston Center
01:48PM 44.1400 -72.7814 349° North 233 268 8,800 -1,620 Descending Boston Center
01:49PM 44.2044 -72.7992 349° North 227 261 7,300 -1,500 Descending Boston Center
01:50PM 44.2628 -72.8228 344° North 222 255 5,900 -960 Descending Boston Center
01:51PM 44.3000 -72.8753 315° West 194 223 5,400 -540 Descending Boston Center
01:52PM 44.3333 -72.9306 310° West 189 217 4,900 -900 Descending Boston Center
01:53PM 44.3622 -72.9772 311° West 179 206 3,700 -960 Descending Boston Center
01:54PM 44.3850 -73.0153 310° West 150 173 3,000 -720 Descending Boston Center
01:55PM 44.4036 -73.0444 312° West 121 139 2,300 -660 Descending Boston Center
01:56PM 44.4219 -73.0767 309° West 109 125 1,700 -600 Descending Boston Center
01:57PM 44.4386 -73.1000 315° West 98 113 1,200 -540 Descending Boston Center
01:58PM 44.4550 -73.1264 311° West 98 113 700 -480 Descending Boston Center
01:59PM 44.4717 -73.1528 312° West 93 107 300 -420 Descending Boston Center
02:01PM 44.4667 -73.1500 316° Northwest  Level FlightAware Approximate